Time;durP1;ratioP1;P1;durP2;ratioP2;P2;SDS_P1;SDS_P2;PMS_P1;PMS_P2;Temp;Humidity;BMP_temperature;BMP_pressure;BME280_temperature;BME280_humidity;BME280_pressure;Samples;Min_cycle;Max_cycle;Signal;HPM_P1;HPM_P2
2023/09/19 00:01:20;;;;;;;9.68;6.20;;;21.40;99.90;;;;;;5249847;28;20029;-84
2023/09/19 00:03:52;;;;;;;15.02;6.30;;;21.40;99.90;;;;;;5249526;28;20028;-81
2023/09/19 00:06:26;;;;;;;7.32;5.93;;;21.40;99.90;;;;;;5247922;28;20032;-85
2023/09/19 00:08:58;;;;;;;8.65;5.82;;;21.40;99.90;;;;;;5249358;28;20018;-82
2023/09/19 00:11:29;;;;;;;10.07;6.00;;;21.40;99.90;;;;;;5249374;28;20158;-85
2023/09/19 00:14:01;;;;;;;22.92;6.45;;;21.40;99.90;;;;;;5249187;28;20536;-83
2023/09/19 00:16:34;;;;;;;10.73;6.13;;;21.40;99.90;;;;;;5249220;28;20113;-83
2023/09/19 00:19:08;;;;;;;12.90;5.90;;;21.30;99.90;;;;;;5247868;28;20488;-84
2023/09/19 00:21:40;;;;;;;13.50;6.53;;;21.30;99.90;;;;;;5248962;28;20059;-84
2023/09/19 00:24:11;;;;;;;10.35;6.07;;;21.30;99.90;;;;;;5248966;28;20075;-84
2023/09/19 00:26:43;;;;;;;9.65;5.80;;;21.20;99.90;;;;;;5249361;28;20052;-82
2023/09/19 00:29:16;;;;;;;13.00;6.18;;;21.30;99.90;;;;;;5248914;28;20025;-80
2023/09/19 00:31:47;;;;;;;9.00;5.82;;;21.30;99.90;;;;;;5248972;28;20032;-83
2023/09/19 00:34:18;;;;;;;8.80;5.32;;;21.20;99.90;;;;;;5249395;28;20529;-85
2023/09/19 00:36:52;;;;;;;10.10;5.68;;;21.20;99.90;;;;;;5248896;28;20155;-86
2023/09/19 00:39:25;;;;;;;6.20;5.55;;;21.20;99.90;;;;;;5248796;28;20023;-80
2023/09/19 00:41:56;;;;;;;12.00;6.15;;;21.20;99.90;;;;;;5249057;28;20025;-80
2023/09/19 00:44:27;;;;;;;8.00;6.28;;;21.20;99.90;;;;;;5248968;28;20024;-84
2023/09/19 00:46:59;;;;;;;10.68;5.97;;;21.20;99.90;;;;;;5248910;28;20021;-83
2023/09/19 00:49:33;;;;;;;8.75;5.80;;;21.20;99.90;;;;;;5248633;28;20025;-82
2023/09/19 00:52:05;;;;;;;8.85;6.10;;;21.20;99.90;;;;;;5249012;28;20510;-84
2023/09/19 00:54:36;;;;;;;12.40;6.45;;;21.20;99.90;;;;;;5247367;28;20074;-80
2023/09/19 00:57:07;;;;;;;8.45;5.68;;;21.30;99.90;;;;;;5248626;28;20113;-80
2023/09/19 00:59:38;;;;;;;11.38;5.68;;;21.10;99.90;;;;;;5248598;28;20017;-85
2023/09/19 01:02:10;;;;;;;9.07;6.22;;;21.20;99.90;;;;;;5248593;28;20388;-84
2023/09/19 01:04:42;;;;;;;9.60;6.95;;;21.10;99.90;;;;;;5248637;28;20052;-83
2023/09/19 01:07:14;;;;;;;10.23;6.63;;;21.20;99.90;;;;;;5247241;28;20497;-83
2023/09/19 01:09:46;;;;;;;12.55;6.68;;;21.20;99.90;;;;;;5247157;28;20483;-83
2023/09/19 01:12:26;;;;;;;9.02;6.20;;;21.20;99.90;;;;;;5246854;28;20040;-80
2023/09/19 01:15:05;;;;;;;8.35;6.28;;;21.10;99.90;;;;;;5248535;28;20037;-83
2023/09/19 01:17:56;;;;;;;10.88;6.75;;;21.20;99.90;;;;;;5248448;28;20035;-80
2023/09/19 01:20:44;;;;;;;13.55;6.53;;;21.00;99.90;;;;;;5248511;28;20404;-80
2023/09/19 01:23:27;;;;;;;7.95;6.20;;;21.10;99.90;;;;;;5249015;28;20020;-84
2023/09/19 01:26:24;;;;;;;10.05;6.32;;;21.10;99.90;;;;;;5247061;28;20716;-82
2023/09/19 01:29:07;;;;;;;8.98;5.85;;;21.10;99.90;;;;;;5248282;28;20388;-82
2023/09/19 01:31:39;;;;;;;11.75;6.40;;;21.10;99.90;;;;;;5248516;28;20035;-84
2023/09/19 01:34:10;;;;;;;8.50;5.95;;;21.20;99.90;;;;;;5248228;28;20123;-84
2023/09/19 01:36:41;;;;;;;6.45;5.45;;;21.20;99.90;;;;;;5248223;28;20103;-81
2023/09/19 01:39:13;;;;;;;8.18;6.22;;;21.20;99.90;;;;;;5246891;28;20069;-83
2023/09/19 01:41:54;;;;;;;9.63;6.65;;;21.10;99.90;;;;;;5248114;28;20104;-83
2023/09/19 01:44:48;;;;;;;11.05;6.30;;;21.10;99.90;;;;;;5248158;28;20380;-83
2023/09/19 01:47:50;;;;;;;8.68;6.55;;;21.10;99.90;;;;;;5198379;28;20480;-85
2023/09/19 01:50:43;;;;;;;8.02;6.40;;;21.10;99.90;;;;;;5231944;28;20052;-82
2023/09/19 01:53:38;;;;;;;9.48;5.57;;;21.00;99.90;;;;;;5248607;28;20016;-83
2023/09/19 01:56:22;;;;;;;10.40;6.10;;;21.10;99.90;;;;;;5248324;28;20032;-81
2023/09/19 01:58:59;;;;;;;7.85;5.82;;;21.10;99.90;;;;;;5248209;28;20052;-84
2023/09/19 02:01:31;;;;;;;9.18;6.00;;;21.10;99.90;;;;;;5248187;28;20038;-81
2023/09/19 02:04:02;;;;;;;12.98;6.65;;;21.00;99.90;;;;;;5247968;28;20020;-82
2023/09/19 02:06:36;;;;;;;8.35;5.60;;;21.00;99.90;;;;;;5247887;28;20028;-82
2023/09/19 02:09:07;;;;;;;8.18;6.15;;;21.00;99.90;;;;;;5247916;28;20070;-83
2023/09/19 02:11:38;;;;;;;9.38;6.43;;;21.00;99.90;;;;;;5247980;28;20107;-83
2023/09/19 02:14:09;;;;;;;8.95;6.13;;;21.00;99.90;;;;;;5247793;28;20024;-84
2023/09/19 02:16:40;;;;;;;11.68;6.80;;;20.90;99.90;;;;;;5248402;28;20058;-83
2023/09/19 02:19:11;;;;;;;7.38;6.40;;;20.90;99.90;;;;;;5247793;28;20078;-81
2023/09/19 02:21:42;;;;;;;11.27;6.53;;;20.90;99.90;;;;;;5247535;28;20049;-81
2023/09/19 02:24:13;;;;;;;12.65;6.78;;;21.00;99.90;;;;;;5248072;28;20021;-82
2023/09/19 02:26:43;;;;;;;8.88;5.65;;;21.00;99.90;;;;;;5246775;28;20024;-84
2023/09/19 02:29:15;;;;;;;8.10;6.15;;;21.00;99.90;;;;;;5250180;28;20103;-82
2023/09/19 02:31:46;;;;;;;10.02;6.07;;;21.00;99.90;;;;;;5251307;28;20032;-83
2023/09/19 02:34:16;;;;;;;8.90;6.65;;;21.00;99.90;;;;;;5251171;28;20024;-85
2023/09/19 02:36:47;;;;;;;7.53;6.18;;;21.00;99.90;;;;;;5251272;28;20467;-84
2023/09/19 02:39:19;;;;;;;8.88;6.43;;;21.00;99.90;;;;;;5251038;28;20021;-83
2023/09/19 02:41:50;;;;;;;8.80;6.25;;;20.90;99.90;;;;;;5249799;28;20063;-82
2023/09/19 02:44:21;;;;;;;8.85;6.20;;;21.00;99.90;;;;;;5251176;28;20056;-83
2023/09/19 02:46:51;;;;;;;10.02;6.00;;;21.00;99.90;;;;;;5251060;28;20028;-81
2023/09/19 02:49:23;;;;;;;9.98;6.40;;;20.90;99.90;;;;;;5251030;28;20024;-84
2023/09/19 02:51:54;;;;;;;8.82;6.30;;;20.90;99.90;;;;;;5250910;28;20406;-80
2023/09/19 02:54:25;;;;;;;10.18;6.10;;;20.90;99.90;;;;;;5250881;28;20029;-84
2023/09/19 02:56:56;;;;;;;11.57;6.70;;;21.00;99.90;;;;;;5250858;28;20036;-81
2023/09/19 02:59:28;;;;;;;8.63;6.13;;;21.00;99.90;;;;;;5250863;28;20033;-84
2023/09/19 03:02:00;;;;;;;8.82;5.78;;;21.00;99.90;;;;;;5250794;28;20031;-84
2023/09/19 03:04:31;;;;;;;7.60;6.57;;;21.10;99.90;;;;;;5249462;28;20036;-81
2023/09/19 03:07:02;;;;;;;9.85;5.72;;;21.00;99.90;;;;;;5250954;28;20025;-80
2023/09/19 03:09:33;;;;;;;7.75;6.00;;;21.00;99.90;;;;;;5250555;28;20029;-83
2023/09/19 03:12:06;;;;;;;7.90;6.25;;;21.00;99.90;;;;;;5250609;28;20024;-82
2023/09/19 03:14:36;;;;;;;9.32;6.15;;;21.00;99.90;;;;;;5250456;28;20029;-83
2023/09/19 03:17:09;;;;;;;6.70;6.00;;;21.00;99.90;;;;;;5250895;28;20494;-82
2023/09/19 03:19:40;;;;;;;8.25;6.28;;;20.90;99.90;;;;;;5250671;28;20027;-81
2023/09/19 03:22:11;;;;;;;7.00;5.68;;;20.90;99.90;;;;;;5250266;28;20491;-83
2023/09/19 03:24:43;;;;;;;8.82;6.68;;;20.90;99.90;;;;;;5250424;28;20020;-84
2023/09/19 03:27:15;;;;;;;9.02;6.43;;;21.00;99.90;;;;;;5250241;28;20025;-82
2023/09/19 03:29:47;;;;;;;6.88;6.10;;;21.00;99.90;;;;;;5250142;28;20067;-84
2023/09/19 03:32:18;;;;;;;7.35;5.93;;;21.00;99.90;;;;;;5250524;28;20468;-81
2023/09/19 03:34:48;;;;;;;8.60;5.80;;;21.00;99.90;;;;;;5250005;28;20121;-84
2023/09/19 03:37:19;;;;;;;10.30;5.78;;;20.90;99.90;;;;;;5250070;28;20025;-82
2023/09/19 03:39:50;;;;;;;11.65;5.72;;;20.90;99.90;;;;;;5249896;28;20100;-82
2023/09/19 03:42:25;;;;;;;9.02;6.65;;;20.90;99.90;;;;;;5249964;28;20372;-81
2023/09/19 03:44:56;;;;;;;8.10;5.78;;;21.00;99.90;;;;;;5249837;28;20031;-82
2023/09/19 03:47:27;;;;;;;9.00;5.72;;;21.00;99.90;;;;;;5250129;28;20111;-83
2023/09/19 03:49:58;;;;;;;8.00;5.78;;;20.90;99.90;;;;;;5249807;28;20111;-81
2023/09/19 03:52:29;;;;;;;11.98;6.32;;;21.00;99.90;;;;;;5250369;28;20423;-83
2023/09/19 03:55:01;;;;;;;6.38;5.78;;;20.90;99.90;;;;;;5249637;28;20093;-82
2023/09/19 03:57:32;;;;;;;9.75;6.43;;;20.90;99.90;;;;;;5249648;28;20025;-84
2023/09/19 04:00:14;;;;;;;7.43;5.93;;;20.90;99.90;;;;;;5249596;28;20117;-84
2023/09/19 04:02:46;;;;;;;7.03;6.43;;;20.90;99.90;;;;;;5248332;28;20497;-84
2023/09/19 04:05:16;;;;;;;11.75;7.35;;;20.90;99.90;;;;;;5249790;28;20039;-83
2023/09/19 04:07:47;;;;;;;10.63;5.65;;;20.90;99.90;;;;;;5248166;28;20025;-82
2023/09/19 04:10:18;;;;;;;9.27;6.03;;;20.90;99.90;;;;;;5249359;28;20052;-82
2023/09/19 04:12:53;;;;;;;10.38;6.28;;;20.90;99.90;;;;;;5249172;28;20036;-80
2023/09/19 04:15:24;;;;;;;9.48;6.13;;;21.00;99.90;;;;;;5249263;28;20090;-84
2023/09/19 04:17:55;;;;;;;8.57;5.82;;;21.00;99.90;;;;;;5249311;28;20028;-81
2023/09/19 04:20:26;;;;;;;7.32;5.88;;;21.00;99.90;;;;;;5248971;28;20048;-82
2023/09/19 04:22:57;;;;;;;10.45;6.82;;;21.00;99.90;;;;;;5249084;28;20112;-82
2023/09/19 04:25:28;;;;;;;8.32;6.18;;;21.00;99.90;;;;;;5248932;28;20349;-81
2023/09/19 04:27:59;;;;;;;10.77;6.55;;;21.10;99.90;;;;;;5249105;28;20416;-83
2023/09/19 04:30:29;;;;;;;6.93;6.22;;;21.00;99.90;;;;;;5248990;28;20016;-82
2023/09/19 04:33:01;;;;;;;10.57;7.25;;;21.10;99.90;;;;;;5248924;28;20405;-83
2023/09/19 04:35:33;;;;;;;9.80;6.75;;;21.00;99.90;;;;;;5247551;28;20127;-81
2023/09/19 04:38:06;;;;;;;9.98;7.20;;;21.10;99.90;;;;;;5247627;28;20484;-84
2023/09/19 04:40:39;;;;;;;9.90;5.95;;;21.00;99.90;;;;;;5248858;28;20361;-83
2023/09/19 04:43:10;;;;;;;9.98;5.90;;;21.10;99.90;;;;;;5248783;28;20187;-81
2023/09/19 04:45:41;;;;;;;6.50;5.43;;;21.30;99.90;;;;;;5248782;28;20098;-81
2023/09/19 04:48:14;;;;;;;9.82;6.35;;;21.30;99.90;;;;;;5248576;28;20032;-85
2023/09/19 04:50:45;;;;;;;10.30;6.55;;;21.50;99.90;;;;;;5248184;28;20036;-80
2023/09/19 04:53:17;;;;;;;15.40;6.95;;;21.50;99.90;;;;;;5247259;28;20024;-83
2023/09/19 04:55:55;;;;;;;7.53;6.70;;;21.50;99.90;;;;;;5248448;28;20448;-84
2023/09/19 04:58:26;;;;;;;11.98;6.13;;;21.60;99.90;;;;;;5247487;28;20027;-83
2023/09/19 05:00:57;;;;;;;8.77;6.30;;;21.60;99.90;;;;;;5247160;28;20025;-83
2023/09/19 05:03:27;;;;;;;8.05;6.05;;;21.60;99.90;;;;;;5247375;28;20038;-80
2023/09/19 05:05:59;;;;;;;10.82;7.65;;;21.60;99.90;;;;;;5245844;28;20097;-80
2023/09/19 05:08:31;;;;;;;12.20;7.07;;;21.80;99.90;;;;;;5245559;28;20727;-80
2023/09/19 05:11:02;;;;;;;9.15;6.55;;;21.90;99.90;;;;;;5246822;28;20565;-79
2023/09/19 05:13:33;;;;;;;12.20;6.28;;;22.10;99.90;;;;;;5246915;28;20123;-79
2023/09/19 05:16:04;;;;;;;6.88;6.20;;;22.00;99.90;;;;;;5246948;28;20048;-86
2023/09/19 05:18:35;;;;;;;11.75;6.10;;;22.00;99.90;;;;;;5248325;28;20023;-79
2023/09/19 05:21:07;;;;;;;8.85;6.20;;;22.00;99.90;;;;;;5248111;28;20056;-85
2023/09/19 05:23:38;;;;;;;9.15;5.57;;;22.00;99.90;;;;;;5248570;28;20024;-85
2023/09/19 05:26:10;;;;;;;8.55;5.88;;;22.10;99.90;;;;;;5248307;28;20376;-83
2023/09/19 05:28:43;;;;;;;12.43;6.30;;;22.40;99.90;;;;;;5248281;28;20112;-80
2023/09/19 05:31:15;;;;;;;14.30;6.22;;;22.30;99.90;;;;;;5248835;28;20036;-80
2023/09/19 05:33:46;;;;;;;10.02;6.15;;;22.40;99.90;;;;;;5248620;28;20048;-80
2023/09/19 05:36:17;;;;;;;10.27;7.10;;;22.60;99.90;;;;;;5248106;28;20522;-83
2023/09/19 05:38:50;;;;;;;9.32;6.63;;;22.70;99.90;;;;;;5246960;28;20021;-86
2023/09/19 05:41:21;;;;;;;8.38;6.15;;;22.80;99.90;;;;;;5248355;28;20031;-85
2023/09/19 05:43:52;;;;;;;9.07;6.65;;;23.00;99.90;;;;;;5248184;28;20025;-84
2023/09/19 05:46:23;;;;;;;10.43;6.47;;;23.00;99.90;;;;;;5248028;28;20016;-83
2023/09/19 05:48:53;;;;;;;11.10;6.47;;;23.00;99.90;;;;;;5248108;28;20042;-82
2023/09/19 05:51:28;;;;;;;8.25;6.05;;;23.10;99.90;;;;;;5248117;28;20055;-84
2023/09/19 05:53:59;;;;;;;10.65;6.40;;;23.00;99.90;;;;;;5248541;28;20460;-81
2023/09/19 05:56:31;;;;;;;8.38;7.47;;;23.00;99.90;;;;;;5248094;28;20043;-83
2023/09/19 05:59:03;;;;;;;10.38;7.30;;;23.10;99.90;;;;;;5248233;28;20388;-80
2023/09/19 06:01:34;;;;;;;9.05;6.75;;;23.20;99.90;;;;;;5248058;28;20062;-80
2023/09/19 06:04:05;;;;;;;10.52;6.65;;;23.20;99.90;;;;;;5249171;28;20028;-84
2023/09/19 06:06:39;;;;;;;10.65;7.28;;;23.20;99.90;;;;;;5251796;28;20020;-83
2023/09/19 06:09:10;;;;;;;11.48;7.22;;;23.40;99.90;;;;;;5251709;28;20499;-80
2023/09/19 06:11:42;;;;;;;8.68;6.78;;;23.50;99.90;;;;;;5250521;28;20357;-80
2023/09/19 06:14:14;;;;;;;14.38;7.45;;;23.40;99.90;;;;;;5250297;28;20031;-86
2023/09/19 06:16:45;;;;;;;11.35;6.75;;;23.40;99.90;;;;;;5251582;28;20020;-82
2023/09/19 06:19:16;;;;;;;11.13;6.78;;;23.30;99.90;;;;;;5251622;28;20033;-83
2023/09/19 06:21:47;;;;;;;7.72;6.93;;;23.10;99.90;;;;;;5250030;28;20078;-81
2023/09/19 06:24:19;;;;;;;9.57;6.90;;;23.10;99.90;;;;;;5251520;28;20349;-80
2023/09/19 06:26:50;;;;;;;10.05;6.22;;;23.10;99.90;;;;;;5251429;28;20043;-86
2023/09/19 06:29:23;;;;;;;8.98;6.57;;;23.20;99.90;;;;;;5251552;28;20025;-81
2023/09/19 06:31:53;;;;;;;10.70;6.78;;;23.30;99.90;;;;;;5251279;28;20099;-79
2023/09/19 06:34:25;;;;;;;14.15;6.18;;;23.30;99.90;;;;;;5249973;28;20119;-83
2023/09/19 06:36:56;;;;;;;11.55;6.22;;;23.10;99.90;;;;;;5251237;28;20069;-83
2023/09/19 06:39:27;;;;;;;11.63;6.90;;;23.20;99.90;;;;;;5250968;28;20029;-83
2023/09/19 06:41:58;;;;;;;11.63;5.95;;;23.30;99.90;;;;;;5251172;28;20029;-83
2023/09/19 06:44:30;;;;;;;11.15;7.20;;;23.20;99.90;;;;;;5251440;28;20036;-81
2023/09/19 06:47:01;;;;;;;11.05;7.15;;;23.20;99.90;;;;;;5249863;28;20480;-81
2023/09/19 06:49:32;;;;;;;11.60;6.65;;;23.10;99.90;;;;;;5250987;28;20070;-79
2023/09/19 06:52:04;;;;;;;10.68;6.03;;;23.10;99.90;;;;;;5251206;28;20078;-84
2023/09/19 06:54:35;;;;;;;11.23;6.70;;;23.00;99.90;;;;;;5250847;28;20372;-82
2023/09/19 06:57:09;;;;;;;9.10;6.57;;;23.10;99.90;;;;;;5250938;28;20031;-81
2023/09/19 06:59:40;;;;;;;10.15;7.10;;;23.00;99.90;;;;;;5249594;28;20025;-79
2023/09/19 07:02:13;;;;;;;6.78;6.18;;;23.00;99.90;;;;;;5250853;28;20514;-79
2023/09/19 07:04:44;;;;;;;10.98;6.88;;;23.30;99.90;;;;;;5250739;28;20530;-79
2023/09/19 07:07:16;;;;;;;12.10;7.38;;;23.70;99.90;;;;;;5250783;28;20017;-80
2023/09/19 07:09:48;;;;;;;8.45;5.57;;;23.70;99.90;;;;;;5249231;28;20032;-82
2023/09/19 07:12:19;;;;;;;10.27;5.78;;;23.50;99.90;;;;;;5250676;28;20376;-82
2023/09/19 07:14:50;;;;;;;9.50;6.00;;;23.40;99.90;;;;;;5249935;28;20028;-83
2023/09/19 07:17:21;;;;;;;12.60;6.03;;;23.30;99.90;;;;;;5250781;28;20036;-79
2023/09/19 07:19:52;;;;;;;9.52;5.75;;;23.30;99.90;;;;;;5250083;28;20102;-83
2023/09/19 07:22:23;;;;;;;10.23;5.60;;;23.40;99.90;;;;;;5250624;28;20437;-80
2023/09/19 07:24:54;;;;;;;12.93;6.82;;;23.80;99.90;;;;;;5250530;28;20074;-79
2023/09/19 07:27:25;;;;;;;8.13;6.70;;;24.00;99.90;;;;;;5250346;28;20028;-83
2023/09/19 07:29:56;;;;;;;9.82;5.90;;;24.00;99.90;;;;;;5249009;28;20082;-80
2023/09/19 07:32:27;;;;;;;7.85;5.95;;;24.20;99.90;;;;;;5248903;28;20111;-85
2023/09/19 07:34:58;;;;;;;13.07;4.80;;;23.90;99.90;;;;;;5250108;28;20056;-84
2023/09/19 07:37:33;;;;;;;13.05;6.22;;;24.10;99.90;;;;;;5248828;28;20075;-81
2023/09/19 07:40:10;;;;;;;10.05;5.63;;;23.90;99.90;;;;;;5248715;28;20183;-85
2023/09/19 07:42:41;;;;;;;9.85;5.03;;;23.80;99.90;;;;;;5250072;28;20024;-83
2023/09/19 07:45:14;;;;;;;8.30;5.60;;;23.60;99.90;;;;;;5248666;28;20025;-82
2023/09/19 07:47:46;;;;;;;9.00;5.10;;;23.70;99.90;;;;;;5249850;28;20349;-84
2023/09/19 07:50:18;;;;;;;7.40;5.03;;;24.20;99.90;;;;;;5248379;28;20086;-80
2023/09/19 07:52:53;;;;;;;14.10;5.53;;;24.60;99.90;;;;;;5249786;28;20100;-81
2023/09/19 07:55:25;;;;;;;10.55;5.18;;;24.80;99.90;;;;;;5249656;28;20054;-83
2023/09/19 07:57:57;;;;;;;6.90;5.15;;;24.90;99.90;;;;;;5249646;28;20090;-81
2023/09/19 08:00:28;;;;;;;9.52;5.53;;;24.80;99.90;;;;;;5249582;28;20017;-79
2023/09/19 08:02:59;;;;;;;7.63;5.35;;;24.80;99.90;;;;;;5249485;28;20025;-82
2023/09/19 08:05:30;;;;;;;7.93;5.82;;;25.10;99.90;;;;;;5249532;28;20490;-82
2023/09/19 08:08:01;;;;;;;9.70;5.78;;;25.00;99.90;;;;;;5249354;28;20438;-80
2023/09/19 08:10:35;;;;;;;11.98;6.00;;;25.30;99.90;;;;;;5249188;28;20373;-79
2023/09/19 08:13:11;;;;;;;8.45;6.30;;;25.40;99.90;;;;;;5249233;28;20123;-83
2023/09/19 08:15:45;;;;;;;6.50;5.85;;;25.40;99.90;;;;;;5248073;28;20064;-82
2023/09/19 08:18:15;;;;;;;9.18;6.47;;;25.40;99.90;;;;;;5247979;28;20025;-82
2023/09/19 08:20:51;;;;;;;8.57;6.88;;;25.30;99.90;;;;;;5248899;28;20083;-84
2023/09/19 08:23:22;;;;;;;11.90;6.38;;;25.60;99.90;;;;;;5249452;28;20032;-84
2023/09/19 08:25:57;;;;;;;7.30;6.65;;;25.20;99.90;;;;;;5247052;28;20397;-81
2023/09/19 08:28:29;;;;;;;10.82;5.78;;;25.40;99.90;;;;;;5247813;28;20020;-82
2023/09/19 08:31:07;;;;;;;9.50;6.82;;;25.50;99.90;;;;;;5249659;28;20024;-82
2023/09/19 08:33:38;;;;;;;11.55;6.82;;;25.60;99.90;;;;;;5249096;28;20025;-80
2023/09/19 08:36:09;;;;;;;10.73;8.93;;;25.60;99.90;;;;;;5248815;28;20043;-83
2023/09/19 08:38:40;;;;;;;10.30;7.07;;;26.00;99.90;;;;;;5248953;28;20017;-82
2023/09/19 08:41:12;;;;;;;9.75;7.97;;;25.90;99.90;;;;;;5248821;28;20441;-83
2023/09/19 08:43:43;;;;;;;8.88;7.70;;;26.00;99.90;;;;;;5248900;28;20021;-79
2023/09/19 08:46:20;;;;;;;10.75;7.63;;;25.70;99.90;;;;;;5249021;28;20498;-81
2023/09/19 08:49:17;;;;;;;8.05;7.30;;;25.80;99.90;;;;;;5248689;28;20468;-81
2023/09/19 08:51:57;;;;;;;9.43;7.90;;;25.60;99.90;;;;;;5248697;28;20060;-83
2023/09/19 08:54:35;;;;;;;15.23;8.40;;;25.90;99.90;;;;;;5249223;28;20099;-81
2023/09/19 08:57:11;;;;;;;10.10;8.13;;;25.80;99.90;;;;;;5248937;28;20123;-82
2023/09/19 08:59:43;;;;;;;9.18;8.25;;;26.20;99.90;;;;;;5248980;28;20047;-81
2023/09/19 09:02:15;;;;;;;8.52;7.60;;;25.70;99.90;;;;;;5248561;28;20051;-83
2023/09/19 09:04:48;;;;;;;9.30;8.38;;;25.80;99.90;;;;;;5248611;28;20028;-81
2023/09/19 09:07:20;;;;;;;9.20;8.45;;;26.10;99.90;;;;;;5248630;28;20468;-82
2023/09/19 09:09:51;;;;;;;9.50;8.65;;;26.00;99.90;;;;;;5247189;28;20036;-79
2023/09/19 09:12:22;;;;;;;8.48;6.72;;;25.50;99.90;;;;;;5248509;28;20028;-85
2023/09/19 09:14:53;;;;;;;8.98;7.55;;;25.80;99.90;;;;;;5248733;28;20750;-83
2023/09/19 09:17:24;;;;;;;9.25;7.32;;;25.60;99.90;;;;;;5248541;28;20035;-82
2023/09/19 09:19:56;;;;;;;10.25;8.10;;;25.50;99.90;;;;;;5248431;28;20495;-84
2023/09/19 09:22:27;;;;;;;10.57;8.40;;;25.90;99.90;;;;;;5248380;28;20464;-80
2023/09/19 09:24:58;;;;;;;11.30;9.38;;;25.70;99.90;;;;;;5248346;28;20139;-80
2023/09/19 09:27:29;;;;;;;12.10;10.88;;;26.00;99.90;;;;;;5248305;28;20031;-83
2023/09/19 09:30:00;;;;;;;11.68;10.57;;;26.00;99.90;;;;;;5248283;28;20025;-79
2023/09/19 09:32:35;;;;;;;12.07;10.00;;;26.10;99.90;;;;;;5248208;28;20051;-80
2023/09/19 09:35:10;;;;;;;25.13;17.60;;;26.20;99.90;;;;;;5248179;28;20081;-82
2023/09/19 09:37:44;;;;;;;23.23;16.75;;;26.20;99.90;;;;;;5249007;28;20089;-82
2023/09/19 09:42:52;;;;;;;11.35;9.98;;;26.40;99.90;;;;;;5252345;28;20468;-79
2023/09/19 09:48:14;;;;;;;11.77;9.02;;;26.50;99.90;;;;;;5252271;28;20032;-82
2023/09/19 09:53:33;;;;;;;13.02;11.82;;;26.30;99.90;;;;;;5252246;28;20163;-80
2023/09/19 09:56:13;;;;;;;12.57;11.10;;;25.90;99.90;;;;;;5252434;28;20032;-79
2023/09/19 09:58:59;;;;;;;15.40;11.73;;;26.00;99.90;;;;;;5252113;28;20016;-87
2023/09/19 10:01:47;;;;;;;9.25;7.47;;;26.40;99.90;;;;;;5252148;28;20031;-83
2023/09/19 10:04:36;;;;;;;8.90;8.00;;;26.70;99.90;;;;;;5252434;28;20447;-85
2023/09/19 10:07:11;;;;;;;14.75;10.45;;;26.90;99.90;;;;;;5251885;28;20063;-81
2023/09/19 10:09:48;;;;;;;10.13;8.23;;;26.30;99.90;;;;;;5251805;28;20028;-80
2023/09/19 10:12:21;;;;;;;8.55;7.75;;;26.40;99.90;;;;;;5251794;28;20020;-80
2023/09/19 10:14:53;;;;;;;10.88;8.48;;;26.40;99.90;;;;;;5252215;28;20464;-82
2023/09/19 10:17:26;;;;;;;7.85;6.78;;;26.60;99.90;;;;;;5250365;28;20458;-84
2023/09/19 10:19:58;;;;;;;8.30;7.38;;;26.90;99.90;;;;;;5250141;28;20037;-82
2023/09/19 10:22:32;;;;;;;11.90;7.53;;;26.90;99.90;;;;;;5250439;28;20381;-81
2023/09/19 10:25:07;;;;;;;9.95;7.45;;;27.10;99.90;;;;;;5250248;28;20032;-81
2023/09/19 10:27:42;;;;;;;8.85;7.53;;;26.40;99.90;;;;;;5251676;28;20027;-79
2023/09/19 10:30:15;;;;;;;11.80;7.38;;;26.40;99.90;;;;;;5251395;28;20055;-82
2023/09/19 10:32:50;;;;;;;8.98;8.13;;;26.10;99.90;;;;;;5251419;28;20012;-80
2023/09/19 10:35:21;;;;;;;10.50;7.80;;;26.70;99.90;;;;;;5251179;28;20090;-78
2023/09/19 10:37:56;;;;;;;10.35;6.97;;;26.90;99.90;;;;;;5251355;28;20029;-80
2023/09/19 10:40:31;;;;;;;12.77;8.77;;;26.60;99.90;;;;;;5249731;28;20017;-83
2023/09/19 10:43:05;;;;;;;9.20;8.20;;;26.50;99.90;;;;;;5251259;28;20047;-79
2023/09/19 10:45:38;;;;;;;9.15;8.20;;;26.40;99.90;;;;;;5251146;28;20048;-78
2023/09/19 10:48:12;;;;;;;8.75;7.95;;;26.10;99.90;;;;;;5249437;28;20082;-80
2023/09/19 10:50:51;;;;;;;12.02;7.57;;;26.60;99.90;;;;;;5250604;28;20029;-81
2023/09/19 10:53:23;;;;;;;8.95;6.25;;;26.60;99.90;;;;;;5251397;28;20097;-83
2023/09/19 10:56:03;;;;;;;8.10;5.32;;;27.10;99.90;;;;;;5250814;28;20086;-81
2023/09/19 10:58:39;;;;;;;7.47;5.28;;;27.20;99.90;;;;;;5249591;28;20025;-83
2023/09/19 11:01:12;;;;;;;7.47;5.38;;;26.70;99.90;;;;;;5250927;28;20029;-80
2023/09/19 11:03:43;;;;;;;8.88;4.97;;;26.70;99.90;;;;;;5250802;28;20082;-82
2023/09/19 11:06:17;;;;;;;8.13;5.05;;;27.00;99.90;;;;;;5250839;28;20415;-85
2023/09/19 11:09:45;;;;;;;9.55;5.63;;;27.30;99.90;;;;;;5250686;28;20059;-83
2023/09/19 11:11:57;;;;;;;5.93;5.05;;;27.30;99.90;;;;;;5247511;28;20507;-79
2023/09/19 11:14:28;;;;;;;9.32;5.18;;;27.10;99.90;;;;;;5250531;28;20055;-81
2023/09/19 11:17:07;;;;;;;7.43;5.50;;;27.10;99.90;;;;;;5249179;28;20119;-83
2023/09/19 11:22:58;;;;;;;8.27;6.78;;;27.40;99.90;;;;;;5244742;28;20044;-81
2023/09/19 11:25:52;;;;;;;9.55;6.57;;;27.30;99.90;;;;;;5250803;28;20026;-87
2023/09/19 11:28:23;;;;;;;8.93;7.63;;;27.50;99.90;;;;;;5249953;28;20031;-84
2023/09/19 11:30:55;;;;;;;7.88;7.07;;;27.70;99.90;;;;;;5250842;28;20344;-86
2023/09/19 11:33:33;;;;;;;8.68;7.80;;;27.80;99.90;;;;;;5250289;28;20021;-82
2023/09/19 11:36:24;;;;;;;8.60;7.57;;;27.00;99.90;;;;;;5250451;28;20040;-85
2023/09/19 11:38:55;;;;;;;8.63;7.65;;;27.50;99.90;;;;;;5250291;28;20017;-82
2023/09/19 11:41:26;;;;;;;8.65;7.65;;;27.60;99.90;;;;;;5250251;28;20073;-83
2023/09/19 11:44:00;;;;;;;8.70;7.90;;;28.00;99.90;;;;;;5248727;28;20421;-81
2023/09/19 11:46:33;;;;;;;9.63;7.55;;;27.80;99.90;;;;;;5248847;28;20028;-85
2023/09/19 11:49:15;;;;;;;8.98;8.05;;;27.70;99.90;;;;;;5249783;28;20102;-83
2023/09/19 11:51:48;;;;;;;15.63;9.35;;;28.00;99.90;;;;;;5249894;28;20037;-81
2023/09/19 11:54:21;;;;;;;8.40;7.38;;;27.60;99.90;;;;;;5249684;28;20029;-81
2023/09/19 11:56:55;;;;;;;9.02;8.13;;;27.70;99.90;;;;;;5249694;28;20062;-83
2023/09/19 11:59:30;;;;;;;9.43;7.95;;;27.40;99.90;;;;;;5249633;28;20031;-81
2023/09/19 12:02:05;;;;;;;9.02;7.75;;;27.20;99.90;;;;;;5249656;28;20425;-81
2023/09/19 12:04:45;;;;;;;8.77;7.93;;;27.30;99.90;;;;;;5249558;28;20038;-81
2023/09/19 12:07:16;;;;;;;10.07;7.88;;;27.50;99.90;;;;;;5249720;28;20020;-82
2023/09/19 12:09:50;;;;;;;9.45;8.60;;;27.10;99.90;;;;;;5248150;28;20125;-79
2023/09/19 12:12:26;;;;;;;10.88;9.07;;;27.40;99.90;;;;;;5248178;28;20020;-79
2023/09/19 12:14:58;;;;;;;13.75;7.57;;;27.50;99.90;;;;;;5248043;28;20039;-79
2023/09/19 12:17:37;;;;;;;10.32;7.95;;;27.40;99.90;;;;;;5247953;28;20020;-84
2023/09/19 12:20:15;;;;;;;9.53;8.53;;;27.80;99.90;;;;;;5249119;28;20051;-79
2023/09/19 12:22:47;;;;;;;9.18;8.45;;;27.40;99.90;;;;;;5249273;28;20274;-80
2023/09/19 12:25:20;;;;;;;10.80;9.57;;;27.40;99.90;;;;;;5249242;28;20024;-82
2023/09/19 12:27:55;;;;;;;9.50;7.97;;;27.60;99.90;;;;;;5249213;28;20480;-79
2023/09/19 12:30:33;;;;;;;8.65;7.70;;;27.60;99.90;;;;;;5249104;28;20027;-86
2023/09/19 12:33:04;;;;;;;13.45;9.18;;;27.50;99.90;;;;;;5249013;28;20115;-82
2023/09/19 12:35:35;;;;;;;9.43;7.80;;;27.70;99.90;;;;;;5248889;28;20036;-81
2023/09/19 12:38:07;;;;;;;8.98;7.32;;;27.90;99.90;;;;;;5247654;28;20032;-80
2023/09/19 12:40:42;;;;;;;7.97;7.32;;;27.90;99.90;;;;;;5248869;28;20387;-82
2023/09/19 12:43:15;;;;;;;7.35;6.57;;;27.80;99.90;;;;;;5248814;28;20029;-83
2023/09/19 12:45:48;;;;;;;9.60;6.60;;;27.90;99.90;;;;;;5248704;28;20444;-81
2023/09/19 12:48:22;;;;;;;9.88;6.72;;;27.60;99.90;;;;;;5248711;28;20103;-84
2023/09/19 12:51:11;;;;;;;9.20;7.35;;;27.80;99.90;;;;;;5248664;28;20029;-81
2023/09/19 12:53:48;;;;;;;8.38;7.57;;;27.80;99.90;;;;;;5247462;28;20028;-79
2023/09/19 12:56:19;;;;;;;10.10;7.10;;;27.90;99.90;;;;;;5248707;28;20059;-80
2023/09/19 12:58:58;;;;;;;8.60;6.85;;;27.80;99.90;;;;;;5248563;28;20102;-81
2023/09/19 13:01:29;;;;;;;9.38;6.90;;;28.00;99.90;;;;;;5248690;28;20024;-84
2023/09/19 13:04:20;;;;;;;6.57;5.45;;;28.00;99.90;;;;;;5248652;28;20360;-79
2023/09/19 13:06:52;;;;;;;9.07;6.50;;;27.90;99.90;;;;;;5248508;28;20029;-80
2023/09/19 13:09:34;;;;;;;10.20;6.78;;;28.00;99.90;;;;;;5248477;28;20032;-80
2023/09/19 13:12:28;;;;;;;5.45;4.95;;;28.00;99.90;;;;;;5248101;28;20032;-79
2023/09/19 13:15:20;;;;;;;7.88;5.78;;;28.00;99.90;;;;;;5248412;28;20102;-86
2023/09/19 13:17:50;;;;;;;7.53;6.15;;;27.50;99.90;;;;;;5248362;28;20029;-85
2023/09/19 13:20:32;;;;;;;10.27;6.28;;;27.50;99.90;;;;;;5246818;28;20560;-82
2023/09/19 13:23:10;;;;;;;9.80;6.22;;;27.50;99.90;;;;;;5248362;28;20154;-82
2023/09/19 13:25:41;;;;;;;9.45;6.72;;;27.60;99.90;;;;;;5248736;28;20024;-83
2023/09/19 13:28:11;;;;;;;8.70;5.70;;;27.60;99.90;;;;;;5248572;28;20025;-79